This is the latest recevied weather packets stored in our database for station/object S53BL-10. If no packets are shown the sender has not sent any weather packets the latest 10 day(s).
| Time | Temp. | Humidity | Pressure | Rain* | Wind** | Luminosity | Snow |
|---|---|---|---|---|---|---|---|
| 1777288980 | 22.22° C | 24% | 1017.1 hPa | - | - | - | - |
| 1777288079 | 23.33° C | 24% | 1017.1 hPa | - | - | - | - |
| 1777286277 | 22.22° C | 24% | 1017.4 hPa | - | - | - | - |
| 1777285376 | 23.33° C | 23% | 1017.6 hPa | - | - | - | - |
| 1777284475 | 21.67° C | 25% | 1017.8 hPa | - | - | - | - |
| 1777283575 | 22.22° C | 25% | 1018 hPa | - | - | - | - |
| 1777281773 | 22.22° C | 25% | 1018.4 hPa | - | - | - | - |
| 1777280872 | 20.56° C | 28% | 1018.6 hPa | - | - | - | - |
| 1777279971 | 21.11° C | 25% | 1018.9 hPa | - | - | - | - |
| 1777279071 | 20.56° C | 27% | 1019 hPa | - | - | - | - |
| 1777278169 | 20° C | 27% | 1019.2 hPa | - | - | - | - |
| 1777277268 | 20.56° C | 26% | 1019.2 hPa | - | - | - | - |
| 1777276367 | 20° C | 27% | 1019.3 hPa | - | - | - | - |
| 1777275466 | 18.33° C | 29% | 1019.3 hPa | - | - | - | - |
| 1777274566 | 17.78° C | 33% | 1019.4 hPa | - | - | - | - |
| 1777273665 | 15.56° C | 37% | 1019.6 hPa | - | - | - | - |
| 1777272764 | 14.44° C | 40% | 1019.7 hPa | - | - | - | - |
| 1777271863 | 12.78° C | 48% | 1019.7 hPa | - | - | - | - |
| 1777270962 | 12.22° C | 52% | 1019.8 hPa | - | - | - | - |
| 1777270062 | 11.11° C | 55% | 1019.9 hPa | - | - | - | - |
| 1777269161 | 10° C | 58% | 1019.7 hPa | - | - | - | - |
| 1777268260 | 9.44° C | 59% | 1019.8 hPa | - | - | - | - |
| 1777267359 | 9.44° C | 62% | 1019.8 hPa | - | - | - | - |
| 1777266458 | 8.89° C | 62% | 1019.7 hPa | - | - | - | - |
| 1777265558 | 8.89° C | 61% | 1019.7 hPa | - | - | - | - |
* Rain since midnight (hover to see other rain measurements)
** Current wind speed in m/s (hover to see current wind gust speed)